sensor_id;sensor_type;location;lat;lon;timestamp;pressure;altitude;pressure_sealevel;temperature;humidity
34177;BME280;20450;49.074;9.158;2023-04-22T00:01:01;99140.13;;;12.39;84.17
34177;BME280;20450;49.074;9.158;2023-04-22T00:03:28;99135.06;;;12.31;84.52
34177;BME280;20450;49.074;9.158;2023-04-22T00:05:56;99141.91;;;12.33;84.81
34177;BME280;20450;49.074;9.158;2023-04-22T00:08:23;99134.25;;;12.19;85.01
34177;BME280;20450;49.074;9.158;2023-04-22T00:10:50;99146.28;;;12.00;86.45
34177;BME280;20450;49.074;9.158;2023-04-22T00:13:18;99148.75;;;12.01;86.65
34177;BME280;20450;49.074;9.158;2023-04-22T00:15:45;99142.53;;;12.01;86.40
34177;BME280;20450;49.074;9.158;2023-04-22T00:18:12;99137.81;;;11.84;86.70
34177;BME280;20450;49.074;9.158;2023-04-22T00:20:40;99138.41;;;11.86;87.10
34177;BME280;20450;49.074;9.158;2023-04-22T00:23:07;99140.88;;;11.88;86.65
34177;BME280;20450;49.074;9.158;2023-04-22T00:25:35;99135.81;;;11.92;87.25
34177;BME280;20450;49.074;9.158;2023-04-22T00:28:02;99132.16;;;11.98;87.07
34177;BME280;20450;49.074;9.158;2023-04-22T00:30:30;99130.75;;;12.07;86.59
34177;BME280;20450;49.074;9.158;2023-04-22T00:32:57;99134.97;;;12.14;86.07
34177;BME280;20450;49.074;9.158;2023-04-22T00:35:24;99126.50;;;12.11;85.85
34177;BME280;20450;49.074;9.158;2023-04-22T00:37:52;99130.13;;;12.16;86.08
34177;BME280;20450;49.074;9.158;2023-04-22T00:40:19;99129.66;;;12.19;85.86
34177;BME280;20450;49.074;9.158;2023-04-22T00:42:48;99120.00;;;12.23;85.23
34177;BME280;20450;49.074;9.158;2023-04-22T00:45:16;99128.41;;;11.99;85.61
34177;BME280;20450;49.074;9.158;2023-04-22T00:47:46;99125.91;;;11.74;86.50
34177;BME280;20450;49.074;9.158;2023-04-22T00:50:15;99123.69;;;11.71;86.53
34177;BME280;20450;49.074;9.158;2023-04-22T00:52:42;99126.28;;;11.77;87.24
34177;BME280;20450;49.074;9.158;2023-04-22T00:55:10;99126.97;;;11.84;86.83
34177;BME280;20450;49.074;9.158;2023-04-22T00:57:37;99130.88;;;11.88;86.68
34177;BME280;20450;49.074;9.158;2023-04-22T01:00:06;99124.75;;;11.93;86.29
34177;BME280;20450;49.074;9.158;2023-04-22T01:02:35;99125.09;;;11.97;86.52
34177;BME280;20450;49.074;9.158;2023-04-22T01:05:04;99119.81;;;12.02;85.97
34177;BME280;20450;49.074;9.158;2023-04-22T01:07:32;99126.63;;;11.93;85.70
34177;BME280;20450;49.074;9.158;2023-04-22T01:10:00;99116.97;;;11.85;86.99
34177;BME280;20450;49.074;9.158;2023-04-22T01:12:28;99135.00;;;11.79;87.89
34177;BME280;20450;49.074;9.158;2023-04-22T01:14:55;99115.91;;;11.74;87.74
34177;BME280;20450;49.074;9.158;2023-04-22T01:17:22;99125.91;;;11.74;87.45
34177;BME280;20450;49.074;9.158;2023-04-22T01:19:49;99123.34;;;11.67;87.31
34177;BME280;20450;49.074;9.158;2023-04-22T01:22:18;99117.78;;;11.74;87.78
34177;BME280;20450;49.074;9.158;2023-04-22T01:24:47;99127.91;;;11.78;87.60
34177;BME280;20450;49.074;9.158;2023-04-22T01:27:15;99119.09;;;11.71;86.77
34177;BME280;20450;49.074;9.158;2023-04-22T01:29:42;99114.97;;;11.57;87.00
34177;BME280;20450;49.074;9.158;2023-04-22T01:32:09;99121.16;;;11.58;88.17
34177;BME280;20450;49.074;9.158;2023-04-22T01:34:37;99124.56;;;11.53;87.73
34177;BME280;20450;49.074;9.158;2023-04-22T01:37:05;99117.75;;;11.39;88.05
34177;BME280;20450;49.074;9.158;2023-04-22T01:39:32;99115.97;;;11.33;88.69
34177;BME280;20450;49.074;9.158;2023-04-22T01:42:03;99117.13;;;11.26;89.64
34177;BME280;20450;49.074;9.158;2023-04-22T01:44:31;99115.47;;;11.25;89.66
34177;BME280;20450;49.074;9.158;2023-04-22T01:46:58;99115.16;;;11.33;89.93
34177;BME280;20450;49.074;9.158;2023-04-22T01:49:26;99120.00;;;11.42;89.75
34177;BME280;20450;49.074;9.158;2023-04-22T01:51:53;99125.03;;;11.50;89.00
34177;BME280;20450;49.074;9.158;2023-04-22T01:54:20;99126.34;;;11.59;88.44
34177;BME280;20450;49.074;9.158;2023-04-22T01:56:50;99131.09;;;11.64;88.51
34177;BME280;20450;49.074;9.158;2023-04-22T01:59:20;99122.28;;;11.68;87.76
34177;BME280;20450;49.074;9.158;2023-04-22T02:01:48;99134.03;;;11.74;87.96
34177;BME280;20450;49.074;9.158;2023-04-22T02:04:21;99131.31;;;11.74;87.59
34177;BME280;20450;49.074;9.158;2023-04-22T02:06:49;99136.25;;;11.77;87.32
34177;BME280;20450;49.074;9.158;2023-04-22T02:09:16;99141.81;;;11.82;87.36
34177;BME280;20450;49.074;9.158;2023-04-22T02:11:43;99134.06;;;11.85;87.37
34177;BME280;20450;49.074;9.158;2023-04-22T02:14:10;99131.69;;;11.89;87.20
34177;BME280;20450;49.074;9.158;2023-04-22T02:16:41;99138.16;;;11.76;86.67
34177;BME280;20450;49.074;9.158;2023-04-22T02:19:08;99144.28;;;11.72;86.77
34177;BME280;20450;49.074;9.158;2023-04-22T02:21:35;99144.75;;;11.69;86.96
34177;BME280;20450;49.074;9.158;2023-04-22T02:24:02;99141.53;;;11.60;87.00
34177;BME280;20450;49.074;9.158;2023-04-22T02:26:30;99135.53;;;11.47;87.43
34177;BME280;20450;49.074;9.158;2023-04-22T02:28:57;99148.28;;;11.28;87.72
34177;BME280;20450;49.074;9.158;2023-04-22T02:31:25;99145.91;;;11.20;89.29
34177;BME280;20450;49.074;9.158;2023-04-22T02:33:54;99148.94;;;11.12;89.24
34177;BME280;20450;49.074;9.158;2023-04-22T02:36:21;99151.16;;;11.04;89.89
34177;BME280;20450;49.074;9.158;2023-04-22T02:38:48;99147.63;;;11.03;89.87
34177;BME280;20450;49.074;9.158;2023-04-22T02:41:15;99149.03;;;11.06;90.21
34177;BME280;20450;49.074;9.158;2023-04-22T02:43:42;99148.56;;;11.09;90.50
34177;BME280;20450;49.074;9.158;2023-04-22T02:46:11;99156.91;;;11.07;90.21
34177;BME280;20450;49.074;9.158;2023-04-22T02:48:39;99154.81;;;11.09;90.48
34177;BME280;20450;49.074;9.158;2023-04-22T02:51:07;99147.88;;;11.13;90.43
34177;BME280;20450;49.074;9.158;2023-04-22T02:53:35;99150.56;;;11.02;90.22
34177;BME280;20450;49.074;9.158;2023-04-22T02:56:03;99159.50;;;11.02;90.17
34177;BME280;20450;49.074;9.158;2023-04-22T02:58:30;99147.16;;;11.06;90.79
34177;BME280;20450;49.074;9.158;2023-04-22T03:00:57;99152.50;;;11.13;89.97
34177;BME280;20450;49.074;9.158;2023-04-22T03:03:25;99150.59;;;11.13;89.47
34177;BME280;20450;49.074;9.158;2023-04-22T03:05:54;99141.31;;;11.09;89.42
34177;BME280;20450;49.074;9.158;2023-04-22T03:08:29;99144.16;;;11.14;89.57
34177;BME280;20450;49.074;9.158;2023-04-22T03:11:37;99138.97;;;11.13;89.44
34177;BME280;20450;49.074;9.158;2023-04-22T03:14:15;99145.44;;;11.23;90.08
34177;BME280;20450;49.074;9.158;2023-04-22T03:16:42;99146.19;;;11.30;89.58
34177;BME280;20450;49.074;9.158;2023-04-22T03:19:09;99145.94;;;11.32;88.15
34177;BME280;20450;49.074;9.158;2023-04-22T03:21:36;99147.81;;;11.31;88.44
34177;BME280;20450;49.074;9.158;2023-04-22T03:24:04;99143.25;;;11.32;88.34
34177;BME280;20450;49.074;9.158;2023-04-22T03:26:34;99155.84;;;11.38;88.41
34177;BME280;20450;49.074;9.158;2023-04-22T03:29:02;99148.91;;;11.42;88.21
34177;BME280;20450;49.074;9.158;2023-04-22T03:31:29;99153.00;;;11.44;87.13
34177;BME280;20450;49.074;9.158;2023-04-22T03:33:57;99154.78;;;11.50;86.96
34177;BME280;20450;49.074;9.158;2023-04-22T03:36:27;99153.75;;;11.51;86.64
34177;BME280;20450;49.074;9.158;2023-04-22T03:38:55;99166.34;;;11.57;86.53
34177;BME280;20450;49.074;9.158;2023-04-22T03:41:24;99163.03;;;11.55;86.06
34177;BME280;20450;49.074;9.158;2023-04-22T03:43:52;99153.28;;;11.54;85.90
34177;BME280;20450;49.074;9.158;2023-04-22T03:46:20;99149.53;;;11.55;86.40
34177;BME280;20450;49.074;9.158;2023-04-22T03:48:58;99148.91;;;11.53;85.89
34177;BME280;20450;49.074;9.158;2023-04-22T03:51:30;99145.03;;;11.49;86.11
34177;BME280;20450;49.074;9.158;2023-04-22T03:54:01;99146.81;;;11.44;86.24
34177;BME280;20450;49.074;9.158;2023-04-22T03:56:32;99151.38;;;11.43;86.17
34177;BME280;20450;49.074;9.158;2023-04-22T03:59:01;99148.75;;;11.37;86.65
34177;BME280;20450;49.074;9.158;2023-04-22T04:01:28;99157.34;;;11.34;85.77
34177;BME280;20450;49.074;9.158;2023-04-22T04:03:59;99155.69;;;11.33;85.48
34177;BME280;20450;49.074;9.158;2023-04-22T04:06:34;99158.63;;;11.31;85.38
34177;BME280;20450;49.074;9.158;2023-04-22T04:09:03;99157.47;;;11.27;85.47
34177;BME280;20450;49.074;9.158;2023-04-22T04:11:32;99152.03;;;11.16;85.76
34177;BME280;20450;49.074;9.158;2023-04-22T04:14:00;99146.09;;;11.07;86.48
34177;BME280;20450;49.074;9.158;2023-04-22T04:16:33;99150.06;;;10.93;86.97
34177;BME280;20450;49.074;9.158;2023-04-22T04:19:09;99153.16;;;10.79;88.09
34177;BME280;20450;49.074;9.158;2023-04-22T04:21:37;99160.28;;;10.73;87.96
34177;BME280;20450;49.074;9.158;2023-04-22T04:24:06;99147.56;;;10.62;89.26
34177;BME280;20450;49.074;9.158;2023-04-22T04:26:39;99146.59;;;10.57;89.49
34177;BME280;20450;49.074;9.158;2023-04-22T04:29:13;99149.28;;;10.57;89.53
34177;BME280;20450;49.074;9.158;2023-04-22T04:31:50;99146.34;;;10.58;89.08
34177;BME280;20450;49.074;9.158;2023-04-22T04:34:19;99147.19;;;10.59;88.53
34177;BME280;20450;49.074;9.158;2023-04-22T04:36:46;99150.72;;;10.59;88.84
34177;BME280;20450;49.074;9.158;2023-04-22T04:39:21;99147.91;;;10.66;88.15
34177;BME280;20450;49.074;9.158;2023-04-22T04:41:49;99147.69;;;10.67;87.97
34177;BME280;20450;49.074;9.158;2023-04-22T04:44:18;99142.63;;;10.59;88.53
34177;BME280;20450;49.074;9.158;2023-04-22T04:46:45;99142.09;;;10.51;88.65
34177;BME280;20450;49.074;9.158;2023-04-22T04:49:12;99145.34;;;10.41;88.72
34177;BME280;20450;49.074;9.158;2023-04-22T04:51:49;99145.09;;;10.43;89.67
34177;BME280;20450;49.074;9.158;2023-04-22T04:54:16;99149.44;;;10.44;89.57
34177;BME280;20450;49.074;9.158;2023-04-22T04:56:43;99144.28;;;10.42;89.40
34177;BME280;20450;49.074;9.158;2023-04-22T04:59:25;99135.06;;;10.32;90.04
34177;BME280;20450;49.074;9.158;2023-04-22T05:01:52;99137.63;;;10.27;90.34
34177;BME280;20450;49.074;9.158;2023-04-22T05:04:20;99132.28;;;10.20;90.25
34177;BME280;20450;49.074;9.158;2023-04-22T05:06:48;99134.81;;;10.15;90.65
34177;BME280;20450;49.074;9.158;2023-04-22T05:09:15;99137.69;;;10.20;90.75
34177;BME280;20450;49.074;9.158;2023-04-22T05:11:45;99142.75;;;10.28;91.10
34177;BME280;20450;49.074;9.158;2023-04-22T05:14:18;99145.78;;;10.38;91.01
34177;BME280;20450;49.074;9.158;2023-04-22T05:20:06;99144.22;;;10.49;89.56
34177;BME280;20450;49.074;9.158;2023-04-22T05:22:34;99143.75;;;10.52;89.52
34177;BME280;20450;49.074;9.158;2023-04-22T05:25:02;99141.72;;;10.47;89.66
34177;BME280;20450;49.074;9.158;2023-04-22T05:27:29;99136.78;;;10.44;89.76
34177;BME280;20450;49.074;9.158;2023-04-22T05:29:56;99137.59;;;10.45;89.35
34177;BME280;20450;49.074;9.158;2023-04-22T05:32:29;99136.34;;;10.47;89.71
34177;BME280;20450;49.074;9.158;2023-04-22T05:34:58;99140.16;;;10.58;89.23
34177;BME280;20450;49.074;9.158;2023-04-22T05:37:25;99139.13;;;10.70;89.92
34177;BME280;20450;49.074;9.158;2023-04-22T05:39:52;99149.69;;;10.90;88.24
34177;BME280;20450;49.074;9.158;2023-04-22T05:42:20;99143.84;;;11.04;87.64
34177;BME280;20450;49.074;9.158;2023-04-22T05:44:48;99143.47;;;11.19;87.36
34177;BME280;20450;49.074;9.158;2023-04-22T05:47:15;99148.66;;;11.32;86.53
34177;BME280;20450;49.074;9.158;2023-04-22T05:49:43;99150.31;;;11.44;85.20
34177;BME280;20450;49.074;9.158;2023-04-22T05:52:20;99155.88;;;11.61;84.39
34177;BME280;20450;49.074;9.158;2023-04-22T05:54:56;99141.91;;;11.64;83.62
34177;BME280;20450;49.074;9.158;2023-04-22T05:57:23;99147.22;;;11.70;83.40
34177;BME280;20450;49.074;9.158;2023-04-22T05:59:51;99142.88;;;11.93;82.74
34177;BME280;20450;49.074;9.158;2023-04-22T06:02:18;99146.06;;;12.13;81.93
34177;BME280;20450;49.074;9.158;2023-04-22T06:04:45;99147.56;;;12.32;81.35
34177;BME280;20450;49.074;9.158;2023-04-22T06:07:13;99153.91;;;12.77;80.31
34177;BME280;20450;49.074;9.158;2023-04-22T06:09:41;99149.22;;;13.12;79.04
34177;BME280;20450;49.074;9.158;2023-04-22T06:12:09;99151.66;;;13.58;77.43
34177;BME280;20450;49.074;9.158;2023-04-22T06:14:36;99144.56;;;13.90;75.57
34177;BME280;20450;49.074;9.158;2023-04-22T06:17:03;99149.25;;;14.11;74.39
34177;BME280;20450;49.074;9.158;2023-04-22T06:19:32;99147.91;;;14.30;74.08
34177;BME280;20450;49.074;9.158;2023-04-22T06:25:18;99149.56;;;15.17;70.74
34177;BME280;20450;49.074;9.158;2023-04-22T06:27:45;99150.00;;;15.62;69.80
34177;BME280;20450;49.074;9.158;2023-04-22T06:30:13;99158.38;;;15.88;68.04
34177;BME280;20450;49.074;9.158;2023-04-22T06:32:40;99158.34;;;16.19;67.26
34177;BME280;20450;49.074;9.158;2023-04-22T06:35:08;99156.13;;;16.58;66.08
34177;BME280;20450;49.074;9.158;2023-04-22T06:37:35;99160.28;;;16.70;65.36
34177;BME280;20450;49.074;9.158;2023-04-22T06:40:06;99156.84;;;16.90;64.58
34177;BME280;20450;49.074;9.158;2023-04-22T06:42:55;99158.53;;;17.11;64.18
34177;BME280;20450;49.074;9.158;2023-04-22T06:45:41;99163.69;;;16.97;64.66
34177;BME280;20450;49.074;9.158;2023-04-22T06:48:18;99160.91;;;16.36;61.57
34177;BME280;20450;49.074;9.158;2023-04-22T06:51:21;99166.75;;;15.49;65.38
34177;BME280;20450;49.074;9.158;2023-04-22T06:53:49;99160.19;;;15.45;66.09
34177;BME280;20450;49.074;9.158;2023-04-22T06:56:16;99158.81;;;15.74;65.61
34177;BME280;20450;49.074;9.158;2023-04-22T06:58:44;99160.38;;;15.97;65.51
34177;BME280;20450;49.074;9.158;2023-04-22T07:01:12;99155.25;;;16.06;63.79
34177;BME280;20450;49.074;9.158;2023-04-22T07:03:40;99158.22;;;15.67;65.29
34177;BME280;20450;49.074;9.158;2023-04-22T07:06:12;99154.84;;;15.55;64.74
34177;BME280;20450;49.074;9.158;2023-04-22T07:08:57;99156.28;;;15.63;66.47
34177;BME280;20450;49.074;9.158;2023-04-22T07:11:25;99153.06;;;15.39;65.23
34177;BME280;20450;49.074;9.158;2023-04-22T07:14:07;99144.31;;;15.37;63.98
34177;BME280;20450;49.074;9.158;2023-04-22T07:16:34;99153.88;;;15.66;64.54
34177;BME280;20450;49.074;9.158;2023-04-22T07:19:01;99143.88;;;16.14;67.41
34177;BME280;20450;49.074;9.158;2023-04-22T07:21:29;99144.44;;;17.44;61.99
34177;BME280;20450;49.074;9.158;2023-04-22T07:23:59;99145.81;;;19.00;55.82
34177;BME280;20450;49.074;9.158;2023-04-22T07:26:27;99135.06;;;19.96;51.96
34177;BME280;20450;49.074;9.158;2023-04-22T07:28:54;99124.25;;;21.27;47.23
34177;BME280;20450;49.074;9.158;2023-04-22T07:31:22;99128.22;;;21.72;45.66
34177;BME280;20450;49.074;9.158;2023-04-22T07:33:49;99128.88;;;22.74;43.31
34177;BME280;20450;49.074;9.158;2023-04-22T07:36:16;99119.53;;;22.29;42.73
34177;BME280;20450;49.074;9.158;2023-04-22T07:38:44;99117.00;;;21.87;45.47
34177;BME280;20450;49.074;9.158;2023-04-22T07:41:11;99121.72;;;20.42;46.20
34177;BME280;20450;49.074;9.158;2023-04-22T07:43:38;99126.28;;;20.51;48.16
34177;BME280;20450;49.074;9.158;2023-04-22T07:46:05;99128.53;;;21.52;46.06
34177;BME280;20450;49.074;9.158;2023-04-22T07:48:35;99117.56;;;22.03;44.02
34177;BME280;20450;49.074;9.158;2023-04-22T07:51:25;99124.59;;;22.09;43.41
34177;BME280;20450;49.074;9.158;2023-04-22T07:53:53;99116.94;;;22.06;42.68
34177;BME280;20450;49.074;9.158;2023-04-22T07:56:20;99128.84;;;21.13;46.41
34177;BME280;20450;49.074;9.158;2023-04-22T07:58:47;99125.84;;;21.47;45.94
34177;BME280;20450;49.074;9.158;2023-04-22T08:01:15;99120.28;;;20.96;45.46
34177;BME280;20450;49.074;9.158;2023-04-22T08:03:54;99127.53;;;19.44;48.81
34177;BME280;20450;49.074;9.158;2023-04-22T08:06:28;99133.75;;;18.43;53.66
34177;BME280;20450;49.074;9.158;2023-04-22T08:08:59;99140.63;;;17.65;56.23
34177;BME280;20450;49.074;9.158;2023-04-22T08:11:32;99138.13;;;17.38;55.02
34177;BME280;20450;49.074;9.158;2023-04-22T08:13:59;99133.81;;;17.52;56.26
34177;BME280;20450;49.074;9.158;2023-04-22T08:16:27;99137.03;;;17.39;57.63
34177;BME280;20450;49.074;9.158;2023-04-22T08:19:02;99138.38;;;17.27;57.53
34177;BME280;20450;49.074;9.158;2023-04-22T08:21:31;99141.34;;;17.20;57.77
34177;BME280;20450;49.074;9.158;2023-04-22T08:28:36;99146.09;;;16.68;57.84
34177;BME280;20450;49.074;9.158;2023-04-22T08:31:04;99144.84;;;16.96;59.56
34177;BME280;20450;49.074;9.158;2023-04-22T08:33:32;99147.56;;;16.91;59.30
34177;BME280;20450;49.074;9.158;2023-04-22T08:36:01;99141.13;;;17.27;58.19
34177;BME280;20450;49.074;9.158;2023-04-22T08:38:28;99139.53;;;17.61;59.03
34177;BME280;20450;49.074;9.158;2023-04-22T08:40:56;99140.63;;;18.05;56.35
34177;BME280;20450;49.074;9.158;2023-04-22T08:43:25;99145.50;;;18.23;53.66
34177;BME280;20450;49.074;9.158;2023-04-22T08:45:55;99133.53;;;17.84;54.90
34177;BME280;20450;49.074;9.158;2023-04-22T08:48:25;99146.66;;;17.77;55.26
34177;BME280;20450;49.074;9.158;2023-04-22T08:50:53;99137.84;;;18.30;54.33
34177;BME280;20450;49.074;9.158;2023-04-22T08:53:31;99140.69;;;18.84;53.44
34177;BME280;20450;49.074;9.158;2023-04-22T08:56:14;99138.06;;;18.59;53.39
34177;BME280;20450;49.074;9.158;2023-04-22T08:58:59;99132.91;;;18.42;52.75
34177;BME280;20450;49.074;9.158;2023-04-22T09:01:30;99135.81;;;18.76;53.07
34177;BME280;20450;49.074;9.158;2023-04-22T09:04:02;99134.63;;;18.97;51.59
34177;BME280;20450;49.074;9.158;2023-04-22T09:06:33;99133.25;;;18.94;52.16
34177;BME280;20450;49.074;9.158;2023-04-22T09:09:10;99126.00;;;18.65;51.73
34177;BME280;20450;49.074;9.158;2023-04-22T09:11:42;99127.84;;;18.89;52.09
34177;BME280;20450;49.074;9.158;2023-04-22T09:14:09;99115.50;;;19.40;50.79
34177;BME280;20450;49.074;9.158;2023-04-22T09:17:02;99109.69;;;19.47;48.41
34177;BME280;20450;49.074;9.158;2023-04-22T09:19:32;99116.47;;;19.60;48.85
34177;BME280;20450;49.074;9.158;2023-04-22T09:22:01;99117.59;;;19.87;48.67
34177;BME280;20450;49.074;9.158;2023-04-22T09:24:31;99113.72;;;19.60;48.58
34177;BME280;20450;49.074;9.158;2023-04-22T09:27:01;99108.66;;;20.05;47.69
34177;BME280;20450;49.074;9.158;2023-04-22T09:29:30;99100.88;;;20.17;46.02
34177;BME280;20450;49.074;9.158;2023-04-22T09:31:57;99109.56;;;19.96;47.43
34177;BME280;20450;49.074;9.158;2023-04-22T09:34:31;99102.47;;;20.23;46.77
34177;BME280;20450;49.074;9.158;2023-04-22T09:41:16;99110.63;;;20.28;45.31
34177;BME280;20450;49.074;9.158;2023-04-22T09:43:56;99100.84;;;20.69;43.50
34177;BME280;20450;49.074;9.158;2023-04-22T09:46:27;99103.16;;;20.81;44.29
34177;BME280;20450;49.074;9.158;2023-04-22T09:48:58;99100.53;;;21.50;42.37
34177;BME280;20450;49.074;9.158;2023-04-22T09:51:27;99103.00;;;20.96;43.54
34177;BME280;20450;49.074;9.158;2023-04-22T09:53:59;99096.91;;;20.75;43.64
34177;BME280;20450;49.074;9.158;2023-04-22T09:56:45;99093.78;;;21.24;42.32
34177;BME280;20450;49.074;9.158;2023-04-22T09:59:14;99098.28;;;21.71;41.23
34177;BME280;20450;49.074;9.158;2023-04-22T10:01:44;99088.69;;;21.68;41.83
34177;BME280;20450;49.074;9.158;2023-04-22T10:04:12;99089.56;;;20.94;42.28
34177;BME280;20450;49.074;9.158;2023-04-22T10:06:40;99078.44;;;21.23;41.06
34177;BME280;20450;49.074;9.158;2023-04-22T10:09:08;99071.16;;;21.64;41.23
34177;BME280;20450;49.074;9.158;2023-04-22T10:11:35;99067.66;;;21.26;41.01
34177;BME280;20450;49.074;9.158;2023-04-22T10:14:04;99069.56;;;21.45;41.09
34177;BME280;20450;49.074;9.158;2023-04-22T10:16:32;99067.50;;;22.60;39.57
34177;BME280;20450;49.074;9.158;2023-04-22T10:19:02;99066.03;;;22.49;39.25
34177;BME280;20450;49.074;9.158;2023-04-22T10:21:32;99060.97;;;22.56;38.69
34177;BME280;20450;49.074;9.158;2023-04-22T10:24:00;99058.03;;;22.66;37.26
34177;BME280;20450;49.074;9.158;2023-04-22T10:26:47;99055.94;;;22.85;36.64
34177;BME280;20450;49.074;9.158;2023-04-22T10:29:18;99064.53;;;22.83;36.83
34177;BME280;20450;49.074;9.158;2023-04-22T10:31:52;99051.88;;;23.76;35.03
34177;BME280;20450;49.074;9.158;2023-04-22T10:34:21;99056.53;;;25.32;34.04
34177;BME280;20450;49.074;9.158;2023-04-22T10:36:53;99051.81;;;25.49;32.29
34177;BME280;20450;49.074;9.158;2023-04-22T10:39:21;99057.25;;;24.89;34.15
34177;BME280;20450;49.074;9.158;2023-04-22T10:41:55;99053.91;;;24.14;35.84
34177;BME280;20450;49.074;9.158;2023-04-22T10:44:45;99040.56;;;24.47;36.38
34177;BME280;20450;49.074;9.158;2023-04-22T10:47:23;99041.06;;;24.10;36.99
34177;BME280;20450;49.074;9.158;2023-04-22T10:50:15;99035.50;;;23.79;37.63
34177;BME280;20450;49.074;9.158;2023-04-22T10:52:47;99036.09;;;24.29;34.81
34177;BME280;20450;49.074;9.158;2023-04-22T10:55:16;99030.56;;;23.68;34.98
34177;BME280;20450;49.074;9.158;2023-04-22T10:57:45;99034.91;;;23.91;35.06
34177;BME280;20450;49.074;9.158;2023-04-22T11:00:26;99030.06;;;23.44;34.91
34177;BME280;20450;49.074;9.158;2023-04-22T11:03:12;99025.47;;;23.83;34.64
34177;BME280;20450;49.074;9.158;2023-04-22T11:05:41;99029.63;;;24.33;33.60
34177;BME280;20450;49.074;9.158;2023-04-22T11:08:15;99022.63;;;24.36;33.20
34177;BME280;20450;49.074;9.158;2023-04-22T11:10:46;99015.00;;;22.92;34.49
34177;BME280;20450;49.074;9.158;2023-04-22T11:13:16;99015.28;;;24.23;33.37
34177;BME280;20450;49.074;9.158;2023-04-22T11:15:46;99017.63;;;25.62;31.00
34177;BME280;20450;49.074;9.158;2023-04-22T11:18:19;99015.69;;;25.37;30.70
34177;BME280;20450;49.074;9.158;2023-04-22T11:20:48;99018.22;;;24.26;32.13
34177;BME280;20450;49.074;9.158;2023-04-22T11:23:21;99012.63;;;24.48;31.82
34177;BME280;20450;49.074;9.158;2023-04-22T11:26:00;99007.69;;;25.01;30.84
34177;BME280;20450;49.074;9.158;2023-04-22T11:28:31;99010.97;;;25.46;30.84
34177;BME280;20450;49.074;9.158;2023-04-22T11:31:04;99012.41;;;24.84;30.70
34177;BME280;20450;49.074;9.158;2023-04-22T11:33:32;99016.31;;;24.35;31.06
34177;BME280;20450;49.074;9.158;2023-04-22T11:36:00;99016.97;;;23.49;32.69
34177;BME280;20450;49.074;9.158;2023-04-22T11:38:27;99003.69;;;24.04;31.78
34177;BME280;20450;49.074;9.158;2023-04-22T11:40:55;99002.25;;;23.32;33.14
34177;BME280;20450;49.074;9.158;2023-04-22T11:43:23;98996.22;;;23.52;33.62
34177;BME280;20450;49.074;9.158;2023-04-22T11:45:50;99004.94;;;23.09;33.04
34177;BME280;20450;49.074;9.158;2023-04-22T11:48:19;98999.16;;;22.48;33.24
34177;BME280;20450;49.074;9.158;2023-04-22T11:50:46;99002.03;;;22.43;34.29
34177;BME280;20450;49.074;9.158;2023-04-22T11:53:14;98999.69;;;22.64;33.79
34177;BME280;20450;49.074;9.158;2023-04-22T11:55:43;98983.41;;;23.11;34.84
34177;BME280;20450;49.074;9.158;2023-04-22T11:58:14;98990.06;;;23.10;32.59
34177;BME280;20450;49.074;9.158;2023-04-22T12:00:45;98983.50;;;22.84;30.65
34177;BME280;20450;49.074;9.158;2023-04-22T12:03:14;98984.03;;;23.08;31.39
34177;BME280;20450;49.074;9.158;2023-04-22T12:05:45;98979.19;;;23.28;31.27
34177;BME280;20450;49.074;9.158;2023-04-22T12:08:17;98978.31;;;23.41;31.32
34177;BME280;20450;49.074;9.158;2023-04-22T12:10:47;98981.56;;;23.43;31.33
34177;BME280;20450;49.074;9.158;2023-04-22T12:13:18;98976.56;;;23.23;32.17
34177;BME280;20450;49.074;9.158;2023-04-22T12:15:46;98968.53;;;23.35;32.64
34177;BME280;20450;49.074;9.158;2023-04-22T12:18:13;98972.88;;;23.27;31.81
34177;BME280;20450;49.074;9.158;2023-04-22T12:24:02;98973.53;;;23.10;32.80
34177;BME280;20450;49.074;9.158;2023-04-22T12:26:38;98970.00;;;22.96;33.48
34177;BME280;20450;49.074;9.158;2023-04-22T12:29:05;98968.41;;;23.17;33.84
34177;BME280;20450;49.074;9.158;2023-04-22T12:31:32;98978.88;;;23.51;34.51
34177;BME280;20450;49.074;9.158;2023-04-22T12:33:59;98974.44;;;23.72;33.45
34177;BME280;20450;49.074;9.158;2023-04-22T12:36:26;98978.31;;;23.63;33.22
34177;BME280;20450;49.074;9.158;2023-04-22T12:38:55;98975.94;;;23.78;32.08
34177;BME280;20450;49.074;9.158;2023-04-22T12:41:48;98976.41;;;24.02;32.67
34177;BME280;20450;49.074;9.158;2023-04-22T12:44:15;98979.09;;;24.33;36.62
34177;BME280;20450;49.074;9.158;2023-04-22T12:46:42;98970.56;;;24.60;35.13
34177;BME280;20450;49.074;9.158;2023-04-22T12:49:09;98978.94;;;24.77;34.07
34177;BME280;20450;49.074;9.158;2023-04-22T12:51:36;98978.91;;;24.94;33.72
34177;BME280;20450;49.074;9.158;2023-04-22T12:54:05;98973.06;;;25.21;34.35
34177;BME280;20450;49.074;9.158;2023-04-22T12:56:32;98967.41;;;25.18;33.07
34177;BME280;20450;49.074;9.158;2023-04-22T12:58:59;98979.41;;;25.30;33.86
34177;BME280;20450;49.074;9.158;2023-04-22T13:01:26;98981.03;;;25.31;34.01
34177;BME280;20450;49.074;9.158;2023-04-22T13:03:53;98976.00;;;25.16;36.07
34177;BME280;20450;49.074;9.158;2023-04-22T13:06:21;98980.72;;;24.98;36.26
34177;BME280;20450;49.074;9.158;2023-04-22T13:08:48;98977.94;;;24.73;36.85
34177;BME280;20450;49.074;9.158;2023-04-22T13:11:16;98978.91;;;24.68;36.55
34177;BME280;20450;49.074;9.158;2023-04-22T13:14:10;98983.34;;;24.39;37.43
34177;BME280;20450;49.074;9.158;2023-04-22T13:16:37;98979.38;;;24.14;37.66
34177;BME280;20450;49.074;9.158;2023-04-22T13:19:17;98975.53;;;24.24;38.04
34177;BME280;20450;49.074;9.158;2023-04-22T13:21:48;98978.09;;;24.12;40.08
34177;BME280;20450;49.074;9.158;2023-04-22T13:24:15;98985.19;;;24.04;40.26
34177;BME280;20450;49.074;9.158;2023-04-22T13:26:44;98980.47;;;24.05;39.55
34177;BME280;20450;49.074;9.158;2023-04-22T13:29:11;98976.13;;;23.82;41.31
34177;BME280;20450;49.074;9.158;2023-04-22T13:31:41;98980.91;;;23.68;39.88
34177;BME280;20450;49.074;9.158;2023-04-22T13:34:09;98984.44;;;23.60;39.22